Terminal Aerodrome Forecast
Issued by NWS Birmingham, AL

Home | Current Version | Previous Version | Text Only | Print | Product List | Glossary On
Versions: 1 2 3 4 5 6 7 8 9 10 11 12 13 14 15 16 17
000
FTUS44 KBMX 252300
TAFBHM
TAF
KBHM 252339Z 2600/2624 23012G20KT 6SM SHRA VCTS SCT045CB BKN060
      BKN110
     FM260100 29009KT P6SM SCT045 OVC060
      TEMPO 2603/2605 6SM SHRA BKN045 OVC070
     FM261100 31010G17KT P6SM OVC020
     FM262100 28007KT P6SM SKC=

USA.gov is the U.S. government's official web portal to all federal, state and local government web resources and services.